Terminal Aerodrome Forecast
Issued by NWS

Home | Current Version | Previous Version | Text Only | Print | Product List | Glossary On
Versions: 1 2 3 4 5 6 7 8 9 10 11 12
000
FTUS45 KRIW 211900 AAA
TAFBPI
TAF AMD
KBPI 211927Z 2119/2218 27011G25KT 5SM -SN SCT020 OVC035
     FM220100 32014G22KT 2SM -SHSN OVC015
     FM220700 33012KT P6SM VCSH SCT015 BKN040=

USA.gov is the U.S. government's official web portal to all federal, state and local government web resources and services.